Time;durP1;ratioP1;P1;durP2;ratioP2;P2;SDS_P1;SDS_P2;PMS_P1;PMS_P2;Temp;Humidity;BMP_temperature;BMP_pressure;BME280_temperature;BME280_humidity;BME280_pressure;Samples;Min_cycle;Max_cycle;Signal;HPM_P1;HPM_P2
2021/01/30 00:01:07;;;;;;;;;;;29.30;33.60;;;;;;5081985;28;19916;-50
2021/01/30 00:03:33;;;;;;;;;;;29.30;33.60;;;;;;5095079;28;19915;-51
2021/01/30 00:05:58;;;;;;;;;;;29.30;33.60;;;;;;5068422;28;19909;-52
2021/01/30 00:08:23;;;;;;;;;;;29.30;33.60;;;;;;5074510;28;19908;-50
2021/01/30 00:10:49;;;;;;;;;;;29.30;33.60;;;;;;5074789;28;19908;-52
2021/01/30 00:13:15;;;;;;;;;;;29.30;33.60;;;;;;5074811;28;20277;-51
2021/01/30 00:15:40;;;;;;;;;;;29.30;33.50;;;;;;5078531;28;20003;-50
2021/01/30 00:18:06;;;;;;;;;;;29.30;33.60;;;;;;5083228;28;20307;-54
2021/01/30 00:20:32;;;;;;;;;;;29.30;33.50;;;;;;5094765;28;19915;-51
2021/01/30 00:22:57;;;;;;;;;;;29.30;33.60;;;;;;5079299;28;20437;-51
2021/01/30 00:25:24;;;;;;;;;;;29.30;33.50;;;;;;5074127;28;19999;-50
2021/01/30 00:27:49;;;;;;;;;;;29.30;33.50;;;;;;5074487;28;19908;-52
2021/01/30 00:30:16;;;;;;;;;;;29.30;33.50;;;;;;5073933;28;20305;-50
2021/01/30 00:32:41;;;;;;;;;;;29.30;33.50;;;;;;5074009;28;20470;-52
2021/01/30 00:35:07;;;;;;;;;;;29.30;33.40;;;;;;5089137;28;20015;-49
2021/01/30 00:37:34;;;;;;;;;;;29.30;33.60;;;;;;5094288;28;19908;-49
2021/01/30 00:39:59;;;;;;;;;;;29.20;33.40;;;;;;5094227;28;19920;-49
2021/01/30 00:42:25;;;;;;;;;;;29.20;33.60;;;;;;5094426;28;19954;-53
2021/01/30 00:44:51;;;;;;;;;;;29.20;33.60;;;;;;5094151;28;20421;-53
2021/01/30 00:47:16;;;;;;;;;;;29.20;33.60;;;;;;5088856;28;20011;-53
2021/01/30 00:49:43;;;;;;;;;;;29.20;33.60;;;;;;5080154;28;19950;-52
2021/01/30 00:52:09;;;;;;;;;;;29.20;33.50;;;;;;5073581;28;20562;-52
2021/01/30 00:54:34;;;;;;;;;;;29.30;33.60;;;;;;5074030;28;19908;-54
2021/01/30 00:57:00;;;;;;;;;;;29.20;33.50;;;;;;5073678;28;19966;-51
2021/01/30 00:59:25;;;;;;;;;;;29.20;33.40;;;;;;5073886;28;19917;-52
2021/01/30 01:01:51;;;;;;;;;;;29.30;33.60;;;;;;5073486;28;20351;-51
2021/01/30 01:04:17;;;;;;;;;;;29.20;33.50;;;;;;5072935;28;19912;-53
2021/01/30 01:06:42;;;;;;;;;;;29.20;33.60;;;;;;5073820;28;19955;-51
2021/01/30 01:09:08;;;;;;;;;;;29.20;33.60;;;;;;5073724;28;19932;-52
2021/01/30 01:11:34;;;;;;;;;;;29.20;33.60;;;;;;5073697;28;20278;-52
2021/01/30 01:13:59;;;;;;;;;;;29.30;33.60;;;;;;5073580;28;19908;-52
2021/01/30 01:16:25;;;;;;;;;;;29.20;33.60;;;;;;5073240;28;19909;-52
2021/01/30 01:18:50;;;;;;;;;;;29.30;33.60;;;;;;5073453;28;19923;-54
2021/01/30 01:21:16;;;;;;;;;;;29.20;33.60;;;;;;5073236;28;20246;-56
2021/01/30 01:23:42;;;;;;;;;;;29.20;33.60;;;;;;5073395;28;19912;-55
2021/01/30 01:26:07;;;;;;;;;;;29.20;33.60;;;;;;5073430;28;19920;-54
2021/01/30 01:28:32;;;;;;;;;;;29.20;33.60;;;;;;5073079;28;19916;-55
2021/01/30 01:30:58;;;;;;;;;;;29.20;33.60;;;;;;5072967;28;19967;-52
2021/01/30 01:33:24;;;;;;;;;;;29.20;33.50;;;;;;5073157;28;19909;-50
2021/01/30 01:35:49;;;;;;;;;;;29.20;33.60;;;;;;5072963;28;19919;-53
2021/01/30 01:38:14;;;;;;;;;;;29.20;33.60;;;;;;5073188;28;19912;-53
2021/01/30 01:40:40;;;;;;;;;;;29.20;33.60;;;;;;5072797;28;19909;-52
2021/01/30 01:43:16;;;;;;;;;;;29.20;33.60;;;;;;5072983;28;19908;-54
2021/01/30 01:45:41;;;;;;;;;;;29.20;33.60;;;;;;5072712;28;19908;-52
2021/01/30 01:48:10;;;;;;;;;;;29.20;33.60;;;;;;5073254;28;20069;-51
2021/01/30 01:50:42;;;;;;;;;;;29.20;33.60;;;;;;5071760;28;19909;-55
2021/01/30 01:53:18;;;;;;;;;;;29.20;33.60;;;;;;5071720;28;19942;-52
2021/01/30 01:55:45;;;;;;;;;;;29.20;33.60;;;;;;5072614;28;19909;-52
2021/01/30 01:58:10;;;;;;;;;;;29.20;33.60;;;;;;5071360;28;20379;-51
2021/01/30 02:00:36;;;;;;;;;;;29.20;33.60;;;;;;5072782;28;20286;-52
2021/01/30 02:03:01;;;;;;;;;;;29.20;33.60;;;;;;5086961;28;19908;-52
2021/01/30 02:05:30;;;;;;;;;;;29.20;33.60;;;;;;5092654;28;20231;-51
2021/01/30 02:07:58;;;;;;;;;;;29.20;33.60;;;;;;5092673;28;19962;-50
2021/01/30 02:10:24;;;;;;;;;;;29.20;33.60;;;;;;5070274;28;19959;-51
2021/01/30 02:12:49;;;;;;;;;;;29.20;33.60;;;;;;5072262;28;19990;-55
2021/01/30 02:15:15;;;;;;;;;;;29.20;33.60;;;;;;5071332;28;19909;-53
2021/01/30 02:17:44;;;;;;;;;;;29.20;33.60;;;;;;5072589;28;19909;-53
2021/01/30 02:20:09;;;;;;;;;;;29.20;33.60;;;;;;5072458;28;19912;-51
2021/01/30 02:22:54;;;;;;;;;;;29.10;33.60;;;;;;5083144;28;19919;-51
2021/01/30 02:25:30;;;;;;;;;;;29.20;33.60;;;;;;5071363;28;20366;-52
2021/01/30 02:27:56;;;;;;;;;;;29.20;33.60;;;;;;5063190;28;19914;-51
2021/01/30 02:30:40;;;;;;;;;;;29.20;33.70;;;;;;5092542;28;19923;-52
2021/01/30 02:33:17;;;;;;;;;;;29.20;33.70;;;;;;5092630;28;19908;-51
2021/01/30 02:36:01;;;;;;;;;;;29.10;33.60;;;;;;5092481;28;19915;-52
2021/01/30 02:38:27;;;;;;;;;;;29.20;33.70;;;;;;5092423;28;19916;-53
2021/01/30 02:40:54;;;;;;;;;;;29.20;33.70;;;;;;5092324;28;19915;-52
2021/01/30 02:43:21;;;;;;;;;;;29.20;33.70;;;;;;5092516;28;19908;-50
2021/01/30 02:46:07;;;;;;;;;;;29.10;33.70;;;;;;5074052;28;20396;-52
2021/01/30 02:48:37;;;;;;;;;;;29.20;33.70;;;;;;5091640;28;19948;-52
2021/01/30 02:51:03;;;;;;;;;;;29.20;33.60;;;;;;5074659;28;20009;-54
2021/01/30 02:53:32;;;;;;;;;;;29.10;33.60;;;;;;5074450;28;20381;-48
2021/01/30 02:55:59;;;;;;;;;;;29.20;33.70;;;;;;5073963;28;20015;-53
2021/01/30 02:58:26;;;;;;;;;;;29.20;33.70;;;;;;5092234;28;19937;-53
2021/01/30 03:00:52;;;;;;;;;;;29.20;33.70;;;;;;5074418;28;19908;-53
2021/01/30 03:03:17;;;;;;;;;;;29.20;33.70;;;;;;5092092;28;19974;-51
2021/01/30 03:05:43;;;;;;;;;;;29.20;33.70;;;;;;5092219;28;19955;-50
2021/01/30 03:08:13;;;;;;;;;;;29.20;33.70;;;;;;5091878;28;19965;-53
2021/01/30 03:10:41;;;;;;;;;;;29.20;33.70;;;;;;5073996;28;19915;-50
2021/01/30 03:13:07;;;;;;;;;;;29.20;33.70;;;;;;5092009;28;19912;-51
2021/01/30 03:15:33;;;;;;;;;;;29.20;33.70;;;;;;5092450;28;20392;-55
2021/01/30 03:17:59;;;;;;;;;;;29.20;33.70;;;;;;5054303;28;19919;-55
2021/01/30 03:20:25;;;;;;;;;;;29.10;33.60;;;;;;5054063;28;20370;-53
2021/01/30 03:22:51;;;;;;;;;;;29.10;33.60;;;;;;5054172;28;20001;-50
2021/01/30 03:25:20;;;;;;;;;;;29.20;33.60;;;;;;5071718;28;19974;-54
2021/01/30 03:27:46;;;;;;;;;;;29.20;33.60;;;;;;5061322;28;19912;-52
2021/01/30 03:30:12;;;;;;;;;;;29.20;33.60;;;;;;5077346;28;19920;-51
2021/01/30 03:32:37;;;;;;;;;;;29.20;33.60;;;;;;5095239;28;20001;-49
2021/01/30 03:35:03;;;;;;;;;;;29.20;33.60;;;;;;5093884;28;19912;-51
2021/01/30 03:37:28;;;;;;;;;;;29.20;33.70;;;;;;5095626;28;19994;-49
2021/01/30 03:39:54;;;;;;;;;;;29.10;33.50;;;;;;5095744;28;20405;-51
2021/01/30 03:42:19;;;;;;;;;;;29.20;33.60;;;;;;5095620;28;19943;-51
2021/01/30 03:44:45;;;;;;;;;;;29.10;33.60;;;;;;5095663;28;19919;-49
2021/01/30 03:47:10;;;;;;;;;;;29.10;33.60;;;;;;5095259;28;20433;-54
2021/01/30 03:49:36;;;;;;;;;;;29.20;33.60;;;;;;5089377;28;19916;-49
2021/01/30 03:52:01;;;;;;;;;;;29.20;33.70;;;;;;5075255;28;20324;-51
2021/01/30 03:54:27;;;;;;;;;;;29.20;33.60;;;;;;5074994;28;19995;-52
2021/01/30 03:56:52;;;;;;;;;;;29.20;33.60;;;;;;5075152;28;19908;-51
2021/01/30 03:59:18;;;;;;;;;;;29.20;33.60;;;;;;5074625;28;20408;-50
2021/01/30 04:01:43;;;;;;;;;;;29.20;33.60;;;;;;5075040;28;19913;-54
2021/01/30 04:04:09;;;;;;;;;;;29.10;33.50;;;;;;5074986;28;20004;-50
2021/01/30 04:06:34;;;;;;;;;;;29.20;33.60;;;;;;5074988;28;19913;-52
2021/01/30 04:09:00;;;;;;;;;;;29.10;33.50;;;;;;5078007;28;19916;-51
2021/01/30 04:11:27;;;;;;;;;;;29.20;34.10;;;;;;5095069;28;19912;-51
2021/01/30 04:13:52;;;;;;;;;;;29.10;33.50;;;;;;5094978;28;19909;-51
2021/01/30 04:16:18;;;;;;;;;;;29.10;33.50;;;;;;5095006;28;19912;-49
2021/01/30 04:18:43;;;;;;;;;;;29.10;33.50;;;;;;5094621;28;19916;-52
2021/01/30 04:21:08;;;;;;;;;;;29.10;34.10;;;;;;5092976;28;19994;-50
2021/01/30 04:23:34;;;;;;;;;;;29.10;33.40;;;;;;5094867;28;20343;-52
2021/01/30 04:25:59;;;;;;;;;;;29.20;33.50;;;;;;5094491;28;19908;-49
2021/01/30 04:28:25;;;;;;;;;;;29.20;33.50;;;;;;5094843;28;19916;-54
2021/01/30 04:30:50;;;;;;;;;;;29.10;33.40;;;;;;5077306;28;19924;-54
2021/01/30 04:33:16;;;;;;;;;;;29.20;33.50;;;;;;5074444;28;19916;-53
2021/01/30 04:35:41;;;;;;;;;;;29.20;33.40;;;;;;5074475;28;19915;-55
2021/01/30 04:38:07;;;;;;;;;;;29.20;33.40;;;;;;5073355;28;19913;-52
2021/01/30 04:40:36;;;;;;;;;;;29.20;33.40;;;;;;5074413;28;19908;-55
2021/01/30 04:43:05;;;;;;;;;;;29.20;33.50;;;;;;5074009;28;19915;-51
2021/01/30 04:45:36;;;;;;;;;;;29.20;33.40;;;;;;5089596;28;19918;-54
2021/01/30 04:48:05;;;;;;;;;;;29.20;33.40;;;;;;5076448;28;19919;-55
2021/01/30 04:50:33;;;;;;;;;;;29.20;33.40;;;;;;5083137;28;20357;-52
2021/01/30 04:53:12;;;;;;;;;;;29.20;33.40;;;;;;5074120;28;19915;-53
2021/01/30 04:55:39;;;;;;;;;;;29.20;33.40;;;;;;5056113;28;19922;-52
2021/01/30 04:58:14;;;;;;;;;;;29.20;33.40;;;;;;5056162;28;19954;-50
2021/01/30 05:00:54;;;;;;;;;;;29.20;33.40;;;;;;5073640;28;19908;-52
2021/01/30 05:03:40;;;;;;;;;;;29.20;33.40;;;;;;5073469;28;19913;-50
2021/01/30 05:06:09;;;;;;;;;;;29.20;33.40;;;;;;5087666;28;19920;-50
2021/01/30 05:08:46;;;;;;;;;;;29.20;33.40;;;;;;5056710;28;19908;-51
2021/01/30 05:11:15;;;;;;;;;;;29.20;33.40;;;;;;5075944;28;19919;-53
2021/01/30 05:13:44;;;;;;;;;;;29.20;33.40;;;;;;5093482;28;20389;-52
2021/01/30 05:16:12;;;;;;;;;;;29.20;33.40;;;;;;5075784;28;19914;-51
2021/01/30 05:18:40;;;;;;;;;;;29.20;33.40;;;;;;5075676;28;19946;-54
2021/01/30 05:21:09;;;;;;;;;;;29.20;33.50;;;;;;5075875;28;19908;-50
2021/01/30 05:23:35;;;;;;;;;;;29.20;33.50;;;;;;5072597;28;19919;-55
2021/01/30 05:26:08;;;;;;;;;;;29.20;33.40;;;;;;5073332;28;20329;-53
2021/01/30 05:28:37;;;;;;;;;;;29.20;33.40;;;;;;5055744;28;19908;-52
2021/01/30 05:31:09;;;;;;;;;;;29.20;33.40;;;;;;5055109;28;19931;-54
2021/01/30 05:33:41;;;;;;;;;;;29.20;33.40;;;;;;5071570;28;19912;-50
2021/01/30 05:36:13;;;;;;;;;;;29.20;33.40;;;;;;5093541;28;19966;-51
2021/01/30 05:38:41;;;;;;;;;;;29.20;33.40;;;;;;5093496;28;19959;-52
2021/01/30 05:41:07;;;;;;;;;;;29.20;33.40;;;;;;5093416;28;19915;-53
2021/01/30 05:43:49;;;;;;;;;;;29.20;33.40;;;;;;5093455;28;19912;-54
2021/01/30 05:46:19;;;;;;;;;;;29.20;33.40;;;;;;5093048;28;20007;-54
2021/01/30 05:48:45;;;;;;;;;;;29.10;33.40;;;;;;5055641;28;19912;-52
2021/01/30 05:51:23;;;;;;;;;;;29.20;33.40;;;;;;5055048;28;19909;-51
2021/01/30 05:53:48;;;;;;;;;;;29.20;33.40;;;;;;5055297;28;19916;-50
2021/01/30 05:56:14;;;;;;;;;;;29.20;33.40;;;;;;5054713;28;19915;-53
2021/01/30 05:58:40;;;;;;;;;;;29.20;33.40;;;;;;5072988;28;19980;-50
2021/01/30 06:01:24;;;;;;;;;;;29.20;33.40;;;;;;5073010;28;20370;-55
2021/01/30 06:03:54;;;;;;;;;;;29.20;33.40;;;;;;5092063;28;19999;-52
2021/01/30 06:06:19;;;;;;;;;;;29.20;33.40;;;;;;5092695;28;19909;-52
2021/01/30 06:08:53;;;;;;;;;;;29.20;33.40;;;;;;5093148;28;19915;-54
2021/01/30 06:11:18;;;;;;;;;;;29.20;33.40;;;;;;5077741;28;20018;-49
2021/01/30 06:13:51;;;;;;;;;;;29.20;33.40;;;;;;5054908;28;20453;-53
2021/01/30 06:16:17;;;;;;;;;;;29.20;33.40;;;;;;5080908;28;19912;-54
2021/01/30 06:18:42;;;;;;;;;;;29.20;33.40;;;;;;5074373;28;20370;-52
2021/01/30 06:21:09;;;;;;;;;;;29.20;33.40;;;;;;5092681;28;19920;-53
2021/01/30 06:23:35;;;;;;;;;;;29.20;33.40;;;;;;5092877;28;19936;-53
2021/01/30 06:26:05;;;;;;;;;;;29.20;33.40;;;;;;5092591;28;19908;-52
2021/01/30 06:28:31;;;;;;;;;;;29.20;33.40;;;;;;5074621;28;19916;-52
2021/01/30 06:31:10;;;;;;;;;;;29.20;33.40;;;;;;5074493;28;19920;-55
2021/01/30 06:33:36;;;;;;;;;;;29.20;33.40;;;;;;5074802;28;19916;-53
2021/01/30 06:36:10;;;;;;;;;;;29.20;33.40;;;;;;5074578;28;19912;-55
2021/01/30 06:38:44;;;;;;;;;;;29.20;33.50;;;;;;5072443;28;19916;-55
2021/01/30 06:41:16;;;;;;;;;;;29.20;33.50;;;;;;5054332;28;19908;-54
2021/01/30 06:43:43;;;;;;;;;;;29.20;33.50;;;;;;5081668;28;20072;-50
2021/01/30 06:46:10;;;;;;;;;;;29.20;33.40;;;;;;5074530;28;19912;-54
2021/01/30 06:48:37;;;;;;;;;;;29.20;33.40;;;;;;5092836;28;19955;-51
2021/01/30 06:51:19;;;;;;;;;;;29.20;33.40;;;;;;5081701;28;20273;-54
2021/01/30 06:53:44;;;;;;;;;;;29.20;33.40;;;;;;5072375;28;19935;-52
2021/01/30 06:56:11;;;;;;;;;;;29.20;33.40;;;;;;5072322;28;20374;-55
2021/01/30 06:58:37;;;;;;;;;;;29.20;33.40;;;;;;5072459;28;19924;-50
2021/01/30 07:01:05;;;;;;;;;;;29.20;33.40;;;;;;5054371;28;20031;-49
2021/01/30 07:03:33;;;;;;;;;;;29.20;33.40;;;;;;5076167;28;19908;-51
2021/01/30 07:06:08;;;;;;;;;;;29.20;33.40;;;;;;5058500;28;19944;-50
2021/01/30 07:08:33;;;;;;;;;;;29.20;33.50;;;;;;5075987;28;19962;-51
2021/01/30 07:11:02;;;;;;;;;;;29.20;33.50;;;;;;5096382;28;20320;-50
2021/01/30 07:13:30;;;;;;;;;;;29.20;33.50;;;;;;5091178;28;19916;-51
2021/01/30 07:16:05;;;;;;;;;;;29.20;33.50;;;;;;5058049;28;19909;-50
2021/01/30 07:18:31;;;;;;;;;;;29.20;33.50;;;;;;5057817;28;19942;-50
2021/01/30 07:21:09;;;;;;;;;;;29.20;33.50;;;;;;5095968;28;19976;-50
2021/01/30 07:23:36;;;;;;;;;;;29.20;33.50;;;;;;5095831;28;19919;-49
2021/01/30 07:26:03;;;;;;;;;;;29.20;33.50;;;;;;5077905;28;19919;-48
2021/01/30 07:28:35;;;;;;;;;;;29.20;33.50;;;;;;5096378;28;19946;-54
2021/01/30 07:31:06;;;;;;;;;;;29.20;33.40;;;;;;5095549;28;19931;-51
2021/01/30 07:33:46;;;;;;;;;;;29.20;33.50;;;;;;5093866;28;19915;-51
2021/01/30 07:36:35;;;;;;;;;;;29.20;33.50;;;;;;5075545;28;19931;-50
2021/01/30 07:39:19;;;;;;;;;;;29.20;33.50;;;;;;5064197;28;19969;-52
2021/01/30 07:41:48;;;;;;;;;;;29.20;33.40;;;;;;5075403;28;19912;-49
2021/01/30 07:44:18;;;;;;;;;;;29.20;33.40;;;;;;5075076;28;19908;-49
2021/01/30 07:46:44;;;;;;;;;;;;;;;;;;5064655;28;20425;-53
2021/01/30 07:49:17;;;;;;;;;;;29.20;33.00;;;;;;5095490;28;20011;-52
2021/01/30 07:51:45;;;;;;;;;;;29.20;33.50;;;;;;5077416;28;19943;-53
2021/01/30 07:54:11;;;;;;;;;;;29.20;33.30;;;;;;5095084;28;19915;-49
2021/01/30 07:56:42;;;;;;;;;;;29.20;33.30;;;;;;5077070;28;19909;-49
2021/01/30 07:59:29;;;;;;;;;;;29.20;33.20;;;;;;5076922;28;20297;-52
2021/01/30 08:02:15;;;;;;;;;;;29.30;33.40;;;;;;5077313;28;19909;-50
2021/01/30 08:05:01;;;;;;;;;;;29.30;33.30;;;;;;5076850;28;19916;-51
2021/01/30 08:07:53;;;;;;;;;;;29.30;33.30;;;;;;5076987;28;19919;-51
2021/01/30 08:10:21;;;;;;;;;;;29.30;33.30;;;;;;5077673;28;19962;-50
2021/01/30 08:13:08;;;;;;;;;;;29.30;33.30;;;;;;5056936;28;19909;-50
2021/01/30 08:15:34;;;;;;;;;;;29.30;33.30;;;;;;5074508;28;20449;-51
2021/01/30 08:18:20;;;;;;;;;;;29.30;33.30;;;;;;5080514;28;19912;-52
2021/01/30 08:20:57;;;;;;;;;;;29.30;33.30;;;;;;5095010;28;19916;-49
2021/01/30 08:23:30;;;;;;;;;;;29.30;33.30;;;;;;5094900;28;20341;-52
2021/01/30 08:26:01;;;;;;;;;;;29.30;33.40;;;;;;5094503;28;20365;-49
2021/01/30 08:29:02;;;;;;;;;;;29.20;33.30;;;;;;5076397;28;20358;-53
2021/01/30 08:31:44;;;;;;;;;;;29.30;33.40;;;;;;4992594;28;19936;-53
2021/01/30 08:34:19;;;;;;;;;;;29.20;33.40;;;;;;5066864;28;19916;-52
2021/01/30 08:36:51;;;;;;;;;;;29.20;33.40;;;;;;5074347;28;19974;-53
2021/01/30 08:39:25;;;;;;;;;;;29.20;33.40;;;;;;5073937;28;20320;-54
2021/01/30 08:41:52;;;;;;;;;;;29.30;34.10;;;;;;5074352;28;19919;-52
2021/01/30 08:44:25;;;;;;;;;;;29.30;33.50;;;;;;5074297;28;19913;-51
2021/01/30 08:47:03;;;;;;;;;;;29.30;33.40;;;;;;5056360;28;19931;-53
2021/01/30 08:49:28;;;;;;;;;;;29.30;33.40;;;;;;5056356;28;19920;-53
2021/01/30 08:52:12;;;;;;;;;;;29.30;33.40;;;;;;5074129;28;20373;-50
2021/01/30 08:54:38;;;;;;;;;;;29.30;33.40;;;;;;5073782;28;19908;-52
2021/01/30 08:57:04;;;;;;;;;;;29.30;33.40;;;;;;5076364;28;19951;-49
2021/01/30 08:59:39;;;;;;;;;;;29.30;33.40;;;;;;5056049;28;19959;-50
2021/01/30 09:02:04;;;;;;;;;;;29.30;33.40;;;;;;5073775;28;19954;-53
2021/01/30 09:04:56;;;;;;;;;;;29.30;33.40;;;;;;5073506;28;19908;-50
2021/01/30 09:07:41;;;;;;;;;;;29.30;33.30;;;;;;5042388;28;19913;-51
2021/01/30 09:10:12;;;;;;;;;;;29.30;33.30;;;;;;5074906;28;19998;-54
2021/01/30 09:12:56;;;;;;;;;;;29.30;33.40;;;;;;5094002;28;19951;-51
2021/01/30 09:15:40;;;;;;;;;;;29.30;33.30;;;;;;5093807;28;19912;-54
2021/01/30 09:18:24;;;;;;;;;;;29.30;33.40;;;;;;5093745;28;20001;-52
2021/01/30 09:20:57;;;;;;;;;;;29.30;34.00;;;;;;5093894;28;19908;-50
2021/01/30 09:23:31;;;;;;;;;;;29.30;33.50;;;;;;5075351;28;19912;-49
2021/01/30 09:26:04;;;;;;;;;;;29.30;33.40;;;;;;5082157;28;19974;-50
2021/01/30 09:28:30;;;;;;;;;;;29.30;33.40;;;;;;5055459;28;19913;-52
2021/01/30 09:30:57;;;;;;;;;;;29.30;33.40;;;;;;5072975;28;20452;-53
2021/01/30 09:33:27;;;;;;;;;;;29.30;32.70;;;;;;5073306;28;19913;-52
2021/01/30 09:36:07;;;;;;;;;;;29.20;30.30;;;;;;5072979;28;19917;-50
2021/01/30 09:38:34;;;;;;;;;;;29.00;28.80;;;;;;5073140;28;19925;-50
2021/01/30 09:41:20;;;;;;;;;;;28.80;27.60;;;;;;5085927;28;19912;-50
2021/01/30 09:43:45;;;;;;;;;;;28.70;27.30;;;;;;5093523;28;19908;-49
2021/01/30 09:46:13;;;;;;;;;;;28.60;27.20;;;;;;5093108;28;20353;-49
2021/01/30 09:48:39;;;;;;;;;;;28.50;27.90;;;;;;5093045;28;20049;-49
2021/01/30 09:51:05;;;;;;;;;;;28.60;28.60;;;;;;5075232;28;20002;-49
2021/01/30 09:53:38;;;;;;;;;;;28.70;29.00;;;;;;5074864;28;20362;-50
2021/01/30 09:56:13;;;;;;;;;;;28.80;29.10;;;;;;5059445;28;19912;-49
2021/01/30 09:58:39;;;;;;;;;;;28.90;29.30;;;;;;5055074;28;19923;-50
2021/01/30 10:01:06;;;;;;;;;;;28.90;29.40;;;;;;5055035;28;19909;-52
2021/01/30 10:03:36;;;;;;;;;;;29.00;29.60;;;;;;5056090;28;19913;-51
2021/01/30 10:06:09;;;;;;;;;;;29.00;29.60;;;;;;5072717;28;19919;-51
2021/01/30 10:08:35;;;;;;;;;;;29.10;29.80;;;;;;5072677;28;20289;-50
2021/01/30 10:11:19;;;;;;;;;;;29.10;29.90;;;;;;5072922;28;19982;-50
2021/01/30 10:13:49;;;;;;;;;;;29.10;30.00;;;;;;5072933;28;19908;-49
2021/01/30 10:16:18;;;;;;;;;;;29.10;30.20;;;;;;5054543;28;19915;-50
2021/01/30 10:18:46;;;;;;;;;;;29.10;30.00;;;;;;5084516;28;19942;-54
2021/01/30 10:21:12;;;;;;;;;;;29.20;30.20;;;;;;5092811;28;19908;-52
2021/01/30 10:23:40;;;;;;;;;;;29.20;30.10;;;;;;5092991;28;19913;-54
2021/01/30 10:26:16;;;;;;;;;;;29.20;30.30;;;;;;5090661;28;19954;-51
2021/01/30 10:28:46;;;;;;;;;;;29.20;30.30;;;;;;5072663;28;19908;-50
2021/01/30 10:31:11;;;;;;;;;;;29.20;30.40;;;;;;5072109;28;19964;-51
2021/01/30 10:33:38;;;;;;;;;;;29.20;30.50;;;;;;5061521;28;19955;-49
2021/01/30 10:36:04;;;;;;;;;;;29.20;30.60;;;;;;5074382;28;20391;-54
2021/01/30 10:38:30;;;;;;;;;;;29.20;30.60;;;;;;5078406;28;19963;-50
2021/01/30 10:41:03;;;;;;;;;;;29.20;30.70;;;;;;5078502;28;20427;-51
2021/01/30 10:43:34;;;;;;;;;;;29.20;30.70;;;;;;5096399;28;19922;-50
2021/01/30 10:46:05;;;;;;;;;;;29.20;30.80;;;;;;5096538;28;20293;-51
2021/01/30 10:48:33;;;;;;;;;;;29.20;30.80;;;;;;5088145;28;19916;-50
2021/01/30 10:51:25;;;;;;;;;;;29.20;30.90;;;;;;5076138;28;19917;-53
2021/01/30 10:54:07;;;;;;;;;;;29.20;31.00;;;;;;5072025;28;20370;-49
2021/01/30 10:56:33;;;;;;;;;;;29.20;31.00;;;;;;5058228;28;20377;-50
2021/01/30 10:58:58;;;;;;;;;;;29.20;31.00;;;;;;5076254;28;20031;-49
2021/01/30 11:01:28;;;;;;;;;;;29.20;31.10;;;;;;5086921;28;20398;-50
2021/01/30 11:03:54;;;;;;;;;;;29.20;31.10;;;;;;5096191;28;20374;-51
2021/01/30 11:06:19;;;;;;;;;;;29.20;31.20;;;;;;5096398;28;19970;-50
2021/01/30 11:08:45;;;;;;;;;;;29.20;31.20;;;;;;5093422;28;19947;-51
2021/01/30 11:11:11;;;;;;;;;;;29.20;31.30;;;;;;5058064;28;19962;-52
2021/01/30 11:13:39;;;;;;;;;;;29.20;31.30;;;;;;5057986;28;20438;-50
2021/01/30 11:16:06;;;;;;;;;;;29.20;31.30;;;;;;5058079;28;20362;-52
2021/01/30 11:18:33;;;;;;;;;;;29.20;31.30;;;;;;5075760;28;19922;-50
2021/01/30 11:20:59;;;;;;;;;;;29.30;31.40;;;;;;5077913;28;19959;-51
2021/01/30 11:23:32;;;;;;;;;;;29.20;31.40;;;;;;5095983;28;19972;-53
2021/01/30 11:25:58;;;;;;;;;;;29.20;31.40;;;;;;5095592;28;19962;-50
2021/01/30 11:28:33;;;;;;;;;;;29.20;31.40;;;;;;5077483;28;19920;-53
2021/01/30 11:30:59;;;;;;;;;;;29.20;31.40;;;;;;5094371;28;20022;-53
2021/01/30 11:33:24;;;;;;;;;;;29.20;31.50;;;;;;5074934;28;20011;-51
2021/01/30 11:35:53;;;;;;;;;;;29.20;31.50;;;;;;5074226;28;19909;-51
2021/01/30 11:38:19;;;;;;;;;;;29.30;31.60;;;;;;5074185;28;20015;-50
2021/01/30 11:40:45;;;;;;;;;;;29.20;31.50;;;;;;5074361;28;19919;-51
2021/01/30 11:43:11;;;;;;;;;;;29.20;31.50;;;;;;5074198;28;19934;-52
2021/01/30 11:45:36;;;;;;;;;;;29.20;31.50;;;;;;5074207;28;19916;-52
2021/01/30 11:48:02;;;;;;;;;;;29.30;31.60;;;;;;5091096;28;19962;-50
2021/01/30 11:50:27;;;;;;;;;;;29.20;31.60;;;;;;5077105;28;19971;-53
2021/01/30 11:52:53;;;;;;;;;;;29.30;31.70;;;;;;5073985;28;19908;-56
2021/01/30 11:55:18;;;;;;;;;;;29.30;31.70;;;;;;5074004;28;20378;-55
2021/01/30 11:57:44;;;;;;;;;;;29.20;31.70;;;;;;5074044;28;19912;-56
2021/01/30 12:00:10;;;;;;;;;;;29.20;31.80;;;;;;5074066;28;19927;-54
2021/01/30 12:02:37;;;;;;;;;;;29.20;31.80;;;;;;5085137;28;19912;-50
2021/01/30 12:05:03;;;;;;;;;;;29.20;31.80;;;;;;5087659;28;19918;-53
2021/01/30 12:07:29;;;;;;;;;;;29.30;31.90;;;;;;5073568;28;19913;-53
2021/01/30 12:09:54;;;;;;;;;;;29.30;31.80;;;;;;5073731;28;19919;-51
2021/01/30 12:12:20;;;;;;;;;;;29.30;31.80;;;;;;5081637;28;20418;-54
2021/01/30 12:14:45;;;;;;;;;;;29.30;31.80;;;;;;5093744;28;19946;-51
2021/01/30 12:17:14;;;;;;;;;;;29.30;31.90;;;;;;5093925;28;19954;-51
2021/01/30 12:19:39;;;;;;;;;;;29.40;32.20;;;;;;5093893;28;19916;-51
2021/01/30 12:22:05;;;;;;;;;;;29.30;32.40;;;;;;5093971;28;19919;-51
2021/01/30 12:24:30;;;;;;;;;;;29.40;32.50;;;;;;5093558;28;19908;-51
2021/01/30 12:26:56;;;;;;;;;;;29.40;32.50;;;;;;5086829;28;19917;-51
2021/01/30 12:29:21;;;;;;;;;;;29.40;32.40;;;;;;5013852;28;1682450;-53
2021/01/30 12:31:47;;;;;;;;;;;29.40;32.40;;;;;;5074287;28;19912;-54
2021/01/30 12:34:12;;;;;;;;;;;29.40;32.40;;;;;;5074159;28;19943;-51
2021/01/30 12:36:38;;;;;;;;;;;29.40;32.30;;;;;;5074376;28;19919;-56
2021/01/30 12:39:03;;;;;;;;;;;29.40;32.40;;;;;;5079532;28;20411;-53
2021/01/30 12:41:29;;;;;;;;;;;29.40;32.30;;;;;;5094426;28;19908;-52
2021/01/30 12:43:54;;;;;;;;;;;29.40;32.20;;;;;;5094563;28;19908;-53
2021/01/30 12:46:20;;;;;;;;;;;29.40;32.20;;;;;;5080404;28;19912;-60
2021/01/30 12:48:45;;;;;;;;;;;29.40;32.60;;;;;;5073998;28;20400;-53
2021/01/30 12:51:11;;;;;;;;;;;29.30;30.90;;;;;;5074032;28;19909;-56
2021/01/30 12:53:37;;;;;;;;;;;28.80;29.70;;;;;;5074129;28;19915;-55
2021/01/30 12:56:02;;;;;;;;;;;28.20;29.80;;;;;;5073894;28;19943;-55
2021/01/30 12:58:28;;;;;;;;;;;27.60;29.10;;;;;;5090426;28;19920;-54
2021/01/30 13:00:54;;;;;;;;;;;26.90;31.30;;;;;;5086297;28;19943;-64
2021/01/30 13:03:19;;;;;;;;;;;27.10;31.90;;;;;;5075492;28;19915;-64
2021/01/30 13:05:45;;;;;;;;;;;27.60;31.90;;;;;;5074829;28;20026;-66
2021/01/30 13:08:10;;;;;;;;;;;28.00;31.40;;;;;;5073915;28;20420;-64
2021/01/30 13:10:36;;;;;;;;;;;28.30;31.20;;;;;;5073711;28;19919;-62
2021/01/30 13:13:02;;;;;;;;;;;28.50;31.40;;;;;;5075350;28;20354;-63
2021/01/30 13:15:28;;;;;;;;;;;28.70;31.70;;;;;;5075413;28;19912;-65
2021/01/30 13:17:53;;;;;;;;;;;28.80;31.60;;;;;;5073699;28;20389;-61
2021/01/30 13:20:19;;;;;;;;;;;28.90;31.70;;;;;;5073978;28;19921;-67
2021/01/30 13:22:44;;;;;;;;;;;29.00;32.20;;;;;;5079472;28;19912;-64
2021/01/30 13:25:11;;;;;;;;;;;29.00;32.20;;;;;;5089662;28;19962;-71
2021/01/30 13:27:37;;;;;;;;;;;29.10;33.00;;;;;;5075561;28;19916;-63
2021/01/30 13:30:06;;;;;;;;;;;29.10;33.30;;;;;;5088271;28;19920;-68
2021/01/30 13:32:32;;;;;;;;;;;29.20;33.60;;;;;;5093571;28;19912;-66
2021/01/30 13:34:57;;;;;;;;;;;29.20;33.40;;;;;;5093173;28;19908;-65
2021/01/30 13:37:23;;;;;;;;;;;29.10;34.50;;;;;;5080289;28;20002;-63
2021/01/30 13:39:48;;;;;;;;;;;29.20;34.40;;;;;;5075423;28;19924;-60
2021/01/30 13:42:14;;;;;;;;;;;29.10;34.70;;;;;;5092446;28;19912;-61
2021/01/30 13:44:39;;;;;;;;;;;29.20;34.80;;;;;;5073666;28;20423;-64
2021/01/30 13:47:05;;;;;;;;;;;29.20;34.90;;;;;;5073093;28;19916;-60
2021/01/30 13:49:30;;;;;;;;;;;29.30;34.60;;;;;;5079766;28;20276;-66
2021/01/30 13:51:55;;;;;;;;;;;29.30;34.90;;;;;;5080652;28;19920;-64
2021/01/30 13:54:21;;;;;;;;;;;29.40;34.90;;;;;;5088754;28;20022;-64
2021/01/30 13:56:46;;;;;;;;;;;29.40;34.80;;;;;;5088430;28;20270;-56
2021/01/30 13:59:12;;;;;;;;;;;29.40;34.90;;;;;;5071263;28;20019;-59
2021/01/30 14:01:40;;;;;;;;;;;29.40;34.60;;;;;;5072883;28;19935;-58
2021/01/30 14:04:06;;;;;;;;;;;29.40;34.60;;;;;;5072967;28;20302;-60
2021/01/30 14:06:31;;;;;;;;;;;29.50;34.80;;;;;;5078118;28;19932;-54
2021/01/30 14:08:57;;;;;;;;;;;29.50;34.70;;;;;;5092469;28;19947;-59
2021/01/30 14:11:23;;;;;;;;;;;29.50;34.80;;;;;;5091475;28;20356;-54
2021/01/30 14:13:48;;;;;;;;;;;29.50;34.80;;;;;;5085866;28;20290;-59
2021/01/30 14:16:14;;;;;;;;;;;29.50;34.90;;;;;;5072539;28;20247;-62
2021/01/30 14:18:39;;;;;;;;;;;29.50;34.90;;;;;;5072565;28;19956;-65
2021/01/30 14:21:05;;;;;;;;;;;29.40;34.80;;;;;;5081806;28;20358;-60
2021/01/30 14:23:30;;;;;;;;;;;29.30;35.10;;;;;;5083371;28;19912;-64
2021/01/30 14:25:56;;;;;;;;;;;29.30;35.30;;;;;;5092648;28;19991;-54